sensor_id;sensor_type;location;lat;lon;timestamp;temperature;humidity
8214;DHT22;4148;47.974;7.824;2023-04-19T00:01:34;9.60;99.90
8214;DHT22;4148;47.974;7.824;2023-04-19T00:04:02;9.50;99.90
8214;DHT22;4148;47.974;7.824;2023-04-19T00:06:30;9.40;99.90
8214;DHT22;4148;47.974;7.824;2023-04-19T00:08:58;9.30;99.90
8214;DHT22;4148;47.974;7.824;2023-04-19T00:11:26;9.20;99.90
8214;DHT22;4148;47.974;7.824;2023-04-19T00:13:54;9.20;99.90
8214;DHT22;4148;47.974;7.824;2023-04-19T00:16:23;9.20;99.90
8214;DHT22;4148;47.974;7.824;2023-04-19T00:18:51;9.20;99.90
8214;DHT22;4148;47.974;7.824;2023-04-19T00:21:21;9.20;99.90
8214;DHT22;4148;47.974;7.824;2023-04-19T00:23:49;9.20;99.90
8214;DHT22;4148;47.974;7.824;2023-04-19T00:26:17;9.20;99.90
8214;DHT22;4148;47.974;7.824;2023-04-19T00:28:44;9.20;99.90
8214;DHT22;4148;47.974;7.824;2023-04-19T00:31:12;9.10;99.90
8214;DHT22;4148;47.974;7.824;2023-04-19T00:33:41;9.10;99.90
8214;DHT22;4148;47.974;7.824;2023-04-19T00:36:09;9.20;99.90
8214;DHT22;4148;47.974;7.824;2023-04-19T00:38:37;9.10;99.90
8214;DHT22;4148;47.974;7.824;2023-04-19T00:41:05;9.10;99.90
8214;DHT22;4148;47.974;7.824;2023-04-19T00:43:33;9.10;99.90
8214;DHT22;4148;47.974;7.824;2023-04-19T00:46:01;9.10;99.90
8214;DHT22;4148;47.974;7.824;2023-04-19T00:48:29;9.00;99.90
8214;DHT22;4148;47.974;7.824;2023-04-19T00:50:58;9.00;99.90
8214;DHT22;4148;47.974;7.824;2023-04-19T00:53:26;9.00;99.90
8214;DHT22;4148;47.974;7.824;2023-04-19T00:55:56;9.20;99.90
8214;DHT22;4148;47.974;7.824;2023-04-19T00:58:27;9.20;99.90
8214;DHT22;4148;47.974;7.824;2023-04-19T01:00:57;9.40;99.90
8214;DHT22;4148;47.974;7.824;2023-04-19T01:03:25;9.50;99.90
8214;DHT22;4148;47.974;7.824;2023-04-19T01:05:55;9.50;99.90
8214;DHT22;4148;47.974;7.824;2023-04-19T01:08:24;9.40;99.90
8214;DHT22;4148;47.974;7.824;2023-04-19T01:10:52;9.50;99.90
8214;DHT22;4148;47.974;7.824;2023-04-19T01:13:20;9.40;99.90
8214;DHT22;4148;47.974;7.824;2023-04-19T01:15:48;9.40;99.90
8214;DHT22;4148;47.974;7.824;2023-04-19T01:18:17;9.30;99.90
8214;DHT22;4148;47.974;7.824;2023-04-19T01:20:45;9.20;99.90
8214;DHT22;4148;47.974;7.824;2023-04-19T01:23:14;9.10;99.90
8214;DHT22;4148;47.974;7.824;2023-04-19T01:25:42;9.00;99.90
8214;DHT22;4148;47.974;7.824;2023-04-19T01:28:10;9.00;99.90
8214;DHT22;4148;47.974;7.824;2023-04-19T01:30:38;8.90;99.90
8214;DHT22;4148;47.974;7.824;2023-04-19T01:33:06;8.80;99.90
8214;DHT22;4148;47.974;7.824;2023-04-19T01:35:33;8.70;99.90
8214;DHT22;4148;47.974;7.824;2023-04-19T01:38:01;8.70;99.90
8214;DHT22;4148;47.974;7.824;2023-04-19T01:40:32;8.80;99.90
8214;DHT22;4148;47.974;7.824;2023-04-19T01:43:00;8.70;99.90
8214;DHT22;4148;47.974;7.824;2023-04-19T01:45:27;8.60;99.90
8214;DHT22;4148;47.974;7.824;2023-04-19T01:47:55;8.50;99.90
8214;DHT22;4148;47.974;7.824;2023-04-19T01:50:24;8.40;99.90
8214;DHT22;4148;47.974;7.824;2023-04-19T01:52:52;8.30;99.90
8214;DHT22;4148;47.974;7.824;2023-04-19T01:55:20;8.30;99.90
8214;DHT22;4148;47.974;7.824;2023-04-19T01:57:49;8.30;99.90
8214;DHT22;4148;47.974;7.824;2023-04-19T02:00:20;8.30;99.90
8214;DHT22;4148;47.974;7.824;2023-04-19T02:02:48;8.20;99.90
8214;DHT22;4148;47.974;7.824;2023-04-19T02:05:16;8.10;99.90
8214;DHT22;4148;47.974;7.824;2023-04-19T02:07:44;8.00;99.90
8214;DHT22;4148;47.974;7.824;2023-04-19T02:10:12;7.90;99.90
8214;DHT22;4148;47.974;7.824;2023-04-19T02:12:40;7.90;99.90
8214;DHT22;4148;47.974;7.824;2023-04-19T02:15:10;7.80;99.90
8214;DHT22;4148;47.974;7.824;2023-04-19T02:17:37;7.80;99.90
8214;DHT22;4148;47.974;7.824;2023-04-19T02:20:07;7.70;99.90
8214;DHT22;4148;47.974;7.824;2023-04-19T02:22:36;7.60;99.90
8214;DHT22;4148;47.974;7.824;2023-04-19T02:25:04;7.60;99.90
8214;DHT22;4148;47.974;7.824;2023-04-19T02:27:32;7.50;99.90
8214;DHT22;4148;47.974;7.824;2023-04-19T02:30:00;7.40;99.90
8214;DHT22;4148;47.974;7.824;2023-04-19T02:32:30;7.30;99.90
8214;DHT22;4148;47.974;7.824;2023-04-19T02:34:57;7.40;99.90
8214;DHT22;4148;47.974;7.824;2023-04-19T02:37:25;7.40;99.90
8214;DHT22;4148;47.974;7.824;2023-04-19T02:39:53;7.40;99.90
8214;DHT22;4148;47.974;7.824;2023-04-19T02:42:21;7.30;99.90
8214;DHT22;4148;47.974;7.824;2023-04-19T02:44:49;7.20;99.90
8214;DHT22;4148;47.974;7.824;2023-04-19T02:49:46;7.20;99.90
8214;DHT22;4148;47.974;7.824;2023-04-19T02:52:14;7.10;99.90
8214;DHT22;4148;47.974;7.824;2023-04-19T02:54:42;7.10;99.90
8214;DHT22;4148;47.974;7.824;2023-04-19T02:57:09;7.10;99.90
8214;DHT22;4148;47.974;7.824;2023-04-19T02:59:37;7.00;99.90
8214;DHT22;4148;47.974;7.824;2023-04-19T03:02:05;7.00;99.90
8214;DHT22;4148;47.974;7.824;2023-04-19T03:04:33;7.00;99.90
8214;DHT22;4148;47.974;7.824;2023-04-19T03:07:03;7.00;99.90
8214;DHT22;4148;47.974;7.824;2023-04-19T03:09:31;6.90;99.90
8214;DHT22;4148;47.974;7.824;2023-04-19T03:11:59;6.80;99.90
8214;DHT22;4148;47.974;7.824;2023-04-19T03:14:27;6.70;99.90
8214;DHT22;4148;47.974;7.824;2023-04-19T03:16:55;6.80;99.90
8214;DHT22;4148;47.974;7.824;2023-04-19T03:19:23;6.70;99.90
8214;DHT22;4148;47.974;7.824;2023-04-19T03:21:51;6.70;99.90
8214;DHT22;4148;47.974;7.824;2023-04-19T03:24:26;6.60;99.90
8214;DHT22;4148;47.974;7.824;2023-04-19T03:26:54;6.50;99.90
8214;DHT22;4148;47.974;7.824;2023-04-19T03:29:22;6.80;99.90
8214;DHT22;4148;47.974;7.824;2023-04-19T03:31:50;6.70;99.90
8214;DHT22;4148;47.974;7.824;2023-04-19T03:34:18;6.40;99.90
8214;DHT22;4148;47.974;7.824;2023-04-19T03:36:45;6.50;99.90
8214;DHT22;4148;47.974;7.824;2023-04-19T03:39:13;6.50;99.90
8214;DHT22;4148;47.974;7.824;2023-04-19T03:41:42;6.30;99.90
8214;DHT22;4148;47.974;7.824;2023-04-19T03:44:10;6.40;99.90
8214;DHT22;4148;47.974;7.824;2023-04-19T03:46:38;6.50;99.90
8214;DHT22;4148;47.974;7.824;2023-04-19T03:49:06;6.40;99.90
8214;DHT22;4148;47.974;7.824;2023-04-19T03:51:34;6.20;99.90
8214;DHT22;4148;47.974;7.824;2023-04-19T03:54:02;6.30;99.90
8214;DHT22;4148;47.974;7.824;2023-04-19T03:56:30;6.10;99.90
8214;DHT22;4148;47.974;7.824;2023-04-19T03:58:59;6.00;99.90
8214;DHT22;4148;47.974;7.824;2023-04-19T04:01:27;6.20;99.90
8214;DHT22;4148;47.974;7.824;2023-04-19T04:03:55;6.30;99.90
8214;DHT22;4148;47.974;7.824;2023-04-19T04:06:23;6.30;99.90
8214;DHT22;4148;47.974;7.824;2023-04-19T04:08:52;6.10;99.90
8214;DHT22;4148;47.974;7.824;2023-04-19T04:11:20;6.00;99.90
8214;DHT22;4148;47.974;7.824;2023-04-19T04:13:47;5.80;99.90
8214;DHT22;4148;47.974;7.824;2023-04-19T04:16:17;5.80;99.90
8214;DHT22;4148;47.974;7.824;2023-04-19T04:18:45;5.80;99.90
8214;DHT22;4148;47.974;7.824;2023-04-19T04:21:13;6.10;99.90
8214;DHT22;4148;47.974;7.824;2023-04-19T04:23:40;6.20;99.90
8214;DHT22;4148;47.974;7.824;2023-04-19T04:26:08;6.30;99.90
8214;DHT22;4148;47.974;7.824;2023-04-19T04:28:36;6.50;99.90
8214;DHT22;4148;47.974;7.824;2023-04-19T04:31:04;6.40;99.90
8214;DHT22;4148;47.974;7.824;2023-04-19T04:36:02;6.10;99.90
8214;DHT22;4148;47.974;7.824;2023-04-19T04:38:30;6.20;99.90
8214;DHT22;4148;47.974;7.824;2023-04-19T04:40:59;6.20;99.90
8214;DHT22;4148;47.974;7.824;2023-04-19T04:43:26;6.30;99.90
8214;DHT22;4148;47.974;7.824;2023-04-19T04:45:55;6.30;99.90
8214;DHT22;4148;47.974;7.824;2023-04-19T04:48:24;6.20;99.90
8214;DHT22;4148;47.974;7.824;2023-04-19T04:50:53;6.30;99.90
8214;DHT22;4148;47.974;7.824;2023-04-19T04:53:21;6.30;99.90
8214;DHT22;4148;47.974;7.824;2023-04-19T04:55:49;6.30;99.90
8214;DHT22;4148;47.974;7.824;2023-04-19T04:58:17;6.30;99.90
8214;DHT22;4148;47.974;7.824;2023-04-19T05:00:46;6.20;99.90
8214;DHT22;4148;47.974;7.824;2023-04-19T05:03:14;6.20;99.90
8214;DHT22;4148;47.974;7.824;2023-04-19T05:05:42;6.30;99.90
8214;DHT22;4148;47.974;7.824;2023-04-19T05:08:12;6.40;99.90
8214;DHT22;4148;47.974;7.824;2023-04-19T05:10:40;6.40;99.90
8214;DHT22;4148;47.974;7.824;2023-04-19T05:13:08;6.30;99.90
8214;DHT22;4148;47.974;7.824;2023-04-19T05:15:36;6.30;99.90
8214;DHT22;4148;47.974;7.824;2023-04-19T05:18:04;6.30;99.90
8214;DHT22;4148;47.974;7.824;2023-04-19T05:20:32;6.40;99.90
8214;DHT22;4148;47.974;7.824;2023-04-19T05:23:00;6.60;99.90
8214;DHT22;4148;47.974;7.824;2023-04-19T05:25:30;6.70;99.90
8214;DHT22;4148;47.974;7.824;2023-04-19T05:27:58;6.70;99.90
8214;DHT22;4148;47.974;7.824;2023-04-19T05:30:26;6.80;99.90
8214;DHT22;4148;47.974;7.824;2023-04-19T05:32:53;6.90;99.90
8214;DHT22;4148;47.974;7.824;2023-04-19T05:35:22;6.90;99.90
8214;DHT22;4148;47.974;7.824;2023-04-19T05:37:50;6.90;99.90
8214;DHT22;4148;47.974;7.824;2023-04-19T05:40:18;6.90;99.90
8214;DHT22;4148;47.974;7.824;2023-04-19T05:42:47;7.00;99.90
8214;DHT22;4148;47.974;7.824;2023-04-19T05:45:15;7.20;99.90
8214;DHT22;4148;47.974;7.824;2023-04-19T05:47:44;7.20;99.90
8214;DHT22;4148;47.974;7.824;2023-04-19T05:50:11;7.30;99.90
8214;DHT22;4148;47.974;7.824;2023-04-19T05:52:40;7.40;99.90
8214;DHT22;4148;47.974;7.824;2023-04-19T05:55:08;7.40;99.90
8214;DHT22;4148;47.974;7.824;2023-04-19T05:57:36;7.60;99.90
8214;DHT22;4148;47.974;7.824;2023-04-19T06:00:07;7.60;99.90
8214;DHT22;4148;47.974;7.824;2023-04-19T06:02:35;7.50;99.90
8214;DHT22;4148;47.974;7.824;2023-04-19T06:05:04;7.50;99.90
8214;DHT22;4148;47.974;7.824;2023-04-19T06:07:36;7.50;99.90
8214;DHT22;4148;47.974;7.824;2023-04-19T06:10:12;7.60;99.90
8214;DHT22;4148;47.974;7.824;2023-04-19T06:12:40;7.50;99.90
8214;DHT22;4148;47.974;7.824;2023-04-19T06:15:10;7.60;99.90
8214;DHT22;4148;47.974;7.824;2023-04-19T06:17:38;7.60;99.90
8214;DHT22;4148;47.974;7.824;2023-04-19T06:20:07;7.80;99.90
8214;DHT22;4148;47.974;7.824;2023-04-19T06:22:43;7.80;99.90
8214;DHT22;4148;47.974;7.824;2023-04-19T06:25:11;7.90;99.90
8214;DHT22;4148;47.974;7.824;2023-04-19T06:27:38;8.00;99.90
8214;DHT22;4148;47.974;7.824;2023-04-19T06:30:07;8.10;99.90
8214;DHT22;4148;47.974;7.824;2023-04-19T06:32:36;8.20;99.90
8214;DHT22;4148;47.974;7.824;2023-04-19T06:35:05;8.20;99.90
8214;DHT22;4148;47.974;7.824;2023-04-19T06:37:33;8.10;99.90
8214;DHT22;4148;47.974;7.824;2023-04-19T06:40:01;8.20;99.90
8214;DHT22;4148;47.974;7.824;2023-04-19T06:42:30;8.20;99.90
8214;DHT22;4148;47.974;7.824;2023-04-19T06:44:58;8.10;99.90
8214;DHT22;4148;47.974;7.824;2023-04-19T06:47:27;8.30;99.90
8214;DHT22;4148;47.974;7.824;2023-04-19T06:49:57;8.30;99.90
8214;DHT22;4148;47.974;7.824;2023-04-19T06:52:25;8.40;99.90
8214;DHT22;4148;47.974;7.824;2023-04-19T06:54:52;8.40;99.90
8214;DHT22;4148;47.974;7.824;2023-04-19T06:57:20;8.50;99.90
8214;DHT22;4148;47.974;7.824;2023-04-19T06:59:48;8.50;99.90
8214;DHT22;4148;47.974;7.824;2023-04-19T07:02:16;8.50;99.90
8214;DHT22;4148;47.974;7.824;2023-04-19T07:04:44;8.60;99.90
8214;DHT22;4148;47.974;7.824;2023-04-19T07:07:14;8.80;99.90
8214;DHT22;4148;47.974;7.824;2023-04-19T07:09:43;8.90;99.90
8214;DHT22;4148;47.974;7.824;2023-04-19T07:12:11;9.00;99.90
8214;DHT22;4148;47.974;7.824;2023-04-19T07:14:39;9.00;99.90
8214;DHT22;4148;47.974;7.824;2023-04-19T07:17:06;9.10;99.90
8214;DHT22;4148;47.974;7.824;2023-04-19T07:19:34;9.20;99.90
8214;DHT22;4148;47.974;7.824;2023-04-19T07:22:02;9.20;99.90
8214;DHT22;4148;47.974;7.824;2023-04-19T07:24:33;9.20;99.90
8214;DHT22;4148;47.974;7.824;2023-04-19T07:27:01;9.20;99.90
8214;DHT22;4148;47.974;7.824;2023-04-19T07:29:28;9.20;99.90
8214;DHT22;4148;47.974;7.824;2023-04-19T07:31:56;9.30;99.90
8214;DHT22;4148;47.974;7.824;2023-04-19T07:34:27;9.40;99.90
8214;DHT22;4148;47.974;7.824;2023-04-19T07:36:54;9.40;99.90
8214;DHT22;4148;47.974;7.824;2023-04-19T07:39:22;9.40;99.90
8214;DHT22;4148;47.974;7.824;2023-04-19T07:41:51;9.50;99.90
8214;DHT22;4148;47.974;7.824;2023-04-19T07:44:19;9.70;99.90
8214;DHT22;4148;47.974;7.824;2023-04-19T07:46:47;9.70;99.90
8214;DHT22;4148;47.974;7.824;2023-04-19T07:49:15;9.80;99.90
8214;DHT22;4148;47.974;7.824;2023-04-19T07:51:43;9.80;99.90
8214;DHT22;4148;47.974;7.824;2023-04-19T07:54:11;9.80;99.90
8214;DHT22;4148;47.974;7.824;2023-04-19T07:56:39;9.80;99.90
8214;DHT22;4148;47.974;7.824;2023-04-19T07:59:08;9.90;99.90
8214;DHT22;4148;47.974;7.824;2023-04-19T08:01:36;10.00;99.90
8214;DHT22;4148;47.974;7.824;2023-04-19T08:04:04;10.10;99.90
8214;DHT22;4148;47.974;7.824;2023-04-19T08:06:32;10.10;99.90
8214;DHT22;4148;47.974;7.824;2023-04-19T08:09:00;10.10;99.90
8214;DHT22;4148;47.974;7.824;2023-04-19T08:11:28;10.20;99.90
8214;DHT22;4148;47.974;7.824;2023-04-19T08:13:56;10.20;99.90
8214;DHT22;4148;47.974;7.824;2023-04-19T08:16:45;10.20;99.90
8214;DHT22;4148;47.974;7.824;2023-04-19T08:19:16;10.30;99.90
8214;DHT22;4148;47.974;7.824;2023-04-19T08:21:43;10.40;99.90
8214;DHT22;4148;47.974;7.824;2023-04-19T08:24:11;10.50;99.90
8214;DHT22;4148;47.974;7.824;2023-04-19T08:26:39;10.50;99.90
8214;DHT22;4148;47.974;7.824;2023-04-19T08:29:08;10.60;99.90
8214;DHT22;4148;47.974;7.824;2023-04-19T08:31:35;10.70;99.90
8214;DHT22;4148;47.974;7.824;2023-04-19T08:34:05;10.60;99.90
8214;DHT22;4148;47.974;7.824;2023-04-19T08:36:33;10.60;99.90
8214;DHT22;4148;47.974;7.824;2023-04-19T08:39:11;10.70;99.90
8214;DHT22;4148;47.974;7.824;2023-04-19T08:42:03;10.60;99.90
8214;DHT22;4148;47.974;7.824;2023-04-19T08:44:38;10.70;99.90
8214;DHT22;4148;47.974;7.824;2023-04-19T08:47:27;10.80;99.90
8214;DHT22;4148;47.974;7.824;2023-04-19T08:50:02;10.80;99.90
8214;DHT22;4148;47.974;7.824;2023-04-19T08:52:50;10.90;99.90
8214;DHT22;4148;47.974;7.824;2023-04-19T08:55:27;11.00;99.90
8214;DHT22;4148;47.974;7.824;2023-04-19T08:57:55;11.00;99.90
8214;DHT22;4148;47.974;7.824;2023-04-19T09:00:23;11.10;99.90
8214;DHT22;4148;47.974;7.824;2023-04-19T09:02:51;11.10;99.90
8214;DHT22;4148;47.974;7.824;2023-04-19T09:05:21;11.20;99.90
8214;DHT22;4148;47.974;7.824;2023-04-19T09:07:50;11.20;99.90
8214;DHT22;4148;47.974;7.824;2023-04-19T09:10:19;11.30;99.90
8214;DHT22;4148;47.974;7.824;2023-04-19T09:13:01;11.30;99.90
8214;DHT22;4148;47.974;7.824;2023-04-19T09:15:36;11.40;99.90
8214;DHT22;4148;47.974;7.824;2023-04-19T09:18:06;11.50;99.90
8214;DHT22;4148;47.974;7.824;2023-04-19T09:20:37;11.60;99.90
8214;DHT22;4148;47.974;7.824;2023-04-19T09:23:07;11.60;99.90
8214;DHT22;4148;47.974;7.824;2023-04-19T09:25:35;11.70;99.90
8214;DHT22;4148;47.974;7.824;2023-04-19T09:28:23;11.80;99.90
8214;DHT22;4148;47.974;7.824;2023-04-19T09:30:51;11.80;99.90
8214;DHT22;4148;47.974;7.824;2023-04-19T09:33:31;11.80;99.90
8214;DHT22;4148;47.974;7.824;2023-04-19T09:36:01;11.80;99.90
8214;DHT22;4148;47.974;7.824;2023-04-19T09:38:29;11.80;99.90
8214;DHT22;4148;47.974;7.824;2023-04-19T09:41:06;11.80;99.90
8214;DHT22;4148;47.974;7.824;2023-04-19T09:43:34;11.80;99.90
8214;DHT22;4148;47.974;7.824;2023-04-19T09:46:32;11.90;99.90
8214;DHT22;4148;47.974;7.824;2023-04-19T09:49:21;11.90;99.90
8214;DHT22;4148;47.974;7.824;2023-04-19T09:52:09;11.90;99.90
8214;DHT22;4148;47.974;7.824;2023-04-19T09:54:40;11.80;99.90
8214;DHT22;4148;47.974;7.824;2023-04-19T09:57:08;11.80;99.90
8214;DHT22;4148;47.974;7.824;2023-04-19T09:59:36;11.80;99.90
8214;DHT22;4148;47.974;7.824;2023-04-19T10:02:05;11.80;99.90
8214;DHT22;4148;47.974;7.824;2023-04-19T10:04:34;11.80;99.90
8214;DHT22;4148;47.974;7.824;2023-04-19T10:07:24;11.80;99.90
8214;DHT22;4148;47.974;7.824;2023-04-19T10:09:57;11.90;99.90
8214;DHT22;4148;47.974;7.824;2023-04-19T10:12:30;12.00;99.90
8214;DHT22;4148;47.974;7.824;2023-04-19T10:15:03;12.10;99.90
8214;DHT22;4148;47.974;7.824;2023-04-19T10:17:32;12.10;99.90
8214;DHT22;4148;47.974;7.824;2023-04-19T10:20:04;12.10;99.90
8214;DHT22;4148;47.974;7.824;2023-04-19T10:22:35;12.20;99.90
8214;DHT22;4148;47.974;7.824;2023-04-19T10:25:08;12.20;99.90
8214;DHT22;4148;47.974;7.824;2023-04-19T10:27:36;12.30;99.90
8214;DHT22;4148;47.974;7.824;2023-04-19T10:30:05;12.30;99.90
8214;DHT22;4148;47.974;7.824;2023-04-19T10:32:41;12.40;99.90
8214;DHT22;4148;47.974;7.824;2023-04-19T10:35:16;12.30;99.90
8214;DHT22;4148;47.974;7.824;2023-04-19T10:38:04;12.40;99.90
8214;DHT22;4148;47.974;7.824;2023-04-19T10:40:54;12.40;99.90
8214;DHT22;4148;47.974;7.824;2023-04-19T10:43:24;12.40;99.90
8214;DHT22;4148;47.974;7.824;2023-04-19T10:45:52;12.40;99.90
8214;DHT22;4148;47.974;7.824;2023-04-19T10:48:38;12.50;99.90
8214;DHT22;4148;47.974;7.824;2023-04-19T10:51:13;12.40;99.90
8214;DHT22;4148;47.974;7.824;2023-04-19T10:53:45;12.40;99.90
8214;DHT22;4148;47.974;7.824;2023-04-19T10:56:14;12.50;99.90
8214;DHT22;4148;47.974;7.824;2023-04-19T10:59:10;12.50;99.90
8214;DHT22;4148;47.974;7.824;2023-04-19T11:01:40;12.50;99.90
8214;DHT22;4148;47.974;7.824;2023-04-19T11:04:09;12.50;99.90
8214;DHT22;4148;47.974;7.824;2023-04-19T11:06:55;12.50;99.90
8214;DHT22;4148;47.974;7.824;2023-04-19T11:09:31;12.50;99.90
8214;DHT22;4148;47.974;7.824;2023-04-19T11:12:02;12.60;99.90
8214;DHT22;4148;47.974;7.824;2023-04-19T11:14:31;12.60;99.90
8214;DHT22;4148;47.974;7.824;2023-04-19T11:17:02;12.60;99.90
8214;DHT22;4148;47.974;7.824;2023-04-19T11:19:31;12.60;99.90
8214;DHT22;4148;47.974;7.824;2023-04-19T11:21:59;12.60;99.90
8214;DHT22;4148;47.974;7.824;2023-04-19T11:24:28;12.50;99.90
8214;DHT22;4148;47.974;7.824;2023-04-19T11:26:56;12.50;99.90
8214;DHT22;4148;47.974;7.824;2023-04-19T11:29:24;12.60;99.90
8214;DHT22;4148;47.974;7.824;2023-04-19T11:31:54;12.60;99.90
8214;DHT22;4148;47.974;7.824;2023-04-19T11:34:22;12.60;99.90
8214;DHT22;4148;47.974;7.824;2023-04-19T11:36:51;12.60;99.90
8214;DHT22;4148;47.974;7.824;2023-04-19T11:39:19;12.70;99.90
8214;DHT22;4148;47.974;7.824;2023-04-19T11:41:49;12.70;99.90
8214;DHT22;4148;47.974;7.824;2023-04-19T11:44:18;12.80;99.90
8214;DHT22;4148;47.974;7.824;2023-04-19T11:47:02;12.90;99.90
8214;DHT22;4148;47.974;7.824;2023-04-19T11:49:32;12.90;99.90
8214;DHT22;4148;47.974;7.824;2023-04-19T11:52:04;13.00;99.90
8214;DHT22;4148;47.974;7.824;2023-04-19T11:54:35;13.00;99.90
8214;DHT22;4148;47.974;7.824;2023-04-19T11:57:09;13.00;99.90
8214;DHT22;4148;47.974;7.824;2023-04-19T11:59:38;13.00;99.90
8214;DHT22;4148;47.974;7.824;2023-04-19T12:02:07;13.00;99.90
8214;DHT22;4148;47.974;7.824;2023-04-19T12:04:36;13.00;99.90
8214;DHT22;4148;47.974;7.824;2023-04-19T12:07:05;13.00;99.90
8214;DHT22;4148;47.974;7.824;2023-04-19T12:09:34;13.00;99.90
8214;DHT22;4148;47.974;7.824;2023-04-19T12:12:04;13.00;99.90
8214;DHT22;4148;47.974;7.824;2023-04-19T12:14:33;13.00;99.90
8214;DHT22;4148;47.974;7.824;2023-04-19T12:17:09;13.00;99.90
8214;DHT22;4148;47.974;7.824;2023-04-19T12:19:41;12.90;99.90
8214;DHT22;4148;47.974;7.824;2023-04-19T12:22:11;12.90;99.90
8214;DHT22;4148;47.974;7.824;2023-04-19T12:24:40;13.00;99.90
8214;DHT22;4148;47.974;7.824;2023-04-19T12:27:09;13.00;99.90
8214;DHT22;4148;47.974;7.824;2023-04-19T12:29:38;13.20;99.90
8214;DHT22;4148;47.974;7.824;2023-04-19T12:32:06;13.10;99.90
8214;DHT22;4148;47.974;7.824;2023-04-19T12:34:34;13.10;99.90
8214;DHT22;4148;47.974;7.824;2023-04-19T12:37:02;13.00;99.90
8214;DHT22;4148;47.974;7.824;2023-04-19T12:39:30;13.10;99.90
8214;DHT22;4148;47.974;7.824;2023-04-19T12:41:58;13.10;99.90
8214;DHT22;4148;47.974;7.824;2023-04-19T12:44:26;13.20;99.90
8214;DHT22;4148;47.974;7.824;2023-04-19T12:46:55;13.20;99.90
8214;DHT22;4148;47.974;7.824;2023-04-19T12:49:23;13.20;99.90
8214;DHT22;4148;47.974;7.824;2023-04-19T12:51:51;13.20;99.90
8214;DHT22;4148;47.974;7.824;2023-04-19T12:54:22;13.30;99.90
8214;DHT22;4148;47.974;7.824;2023-04-19T12:56:50;13.30;99.90
8214;DHT22;4148;47.974;7.824;2023-04-19T12:59:18;13.30;99.90
8214;DHT22;4148;47.974;7.824;2023-04-19T13:01:47;13.30;99.90
8214;DHT22;4148;47.974;7.824;2023-04-19T13:04:17;13.40;99.90
8214;DHT22;4148;47.974;7.824;2023-04-19T13:06:45;13.50;99.90
8214;DHT22;4148;47.974;7.824;2023-04-19T13:09:13;13.60;99.90
8214;DHT22;4148;47.974;7.824;2023-04-19T13:11:41;13.70;99.90
8214;DHT22;4148;47.974;7.824;2023-04-19T13:14:09;13.70;99.90
8214;DHT22;4148;47.974;7.824;2023-04-19T13:16:36;13.80;99.90
8214;DHT22;4148;47.974;7.824;2023-04-19T13:19:04;14.00;99.90
8214;DHT22;4148;47.974;7.824;2023-04-19T13:21:34;14.00;99.90
8214;DHT22;4148;47.974;7.824;2023-04-19T13:24:02;14.10;99.90
8214;DHT22;4148;47.974;7.824;2023-04-19T13:26:30;14.20;99.90
8214;DHT22;4148;47.974;7.824;2023-04-19T13:28:59;14.30;99.90
8214;DHT22;4148;47.974;7.824;2023-04-19T13:31:27;14.30;99.90
8214;DHT22;4148;47.974;7.824;2023-04-19T13:33:56;14.30;99.90
8214;DHT22;4148;47.974;7.824;2023-04-19T13:36:26;14.30;99.90
8214;DHT22;4148;47.974;7.824;2023-04-19T13:38:55;14.20;99.90
8214;DHT22;4148;47.974;7.824;2023-04-19T13:41:23;14.20;99.90
8214;DHT22;4148;47.974;7.824;2023-04-19T13:43:51;14.20;99.90
8214;DHT22;4148;47.974;7.824;2023-04-19T13:46:19;14.20;99.90
8214;DHT22;4148;47.974;7.824;2023-04-19T13:48:46;14.10;99.90
8214;DHT22;4148;47.974;7.824;2023-04-19T13:51:14;14.00;99.90
8214;DHT22;4148;47.974;7.824;2023-04-19T13:53:42;14.00;99.90
8214;DHT22;4148;47.974;7.824;2023-04-19T13:56:11;13.90;99.90
8214;DHT22;4148;47.974;7.824;2023-04-19T13:58:39;14.00;99.90
8214;DHT22;4148;47.974;7.824;2023-04-19T14:01:07;14.00;99.90
8214;DHT22;4148;47.974;7.824;2023-04-19T14:03:35;13.90;99.90
8214;DHT22;4148;47.974;7.824;2023-04-19T14:06:03;13.80;99.90
8214;DHT22;4148;47.974;7.824;2023-04-19T14:08:31;13.90;99.90
8214;DHT22;4148;47.974;7.824;2023-04-19T14:10:59;13.90;99.90
8214;DHT22;4148;47.974;7.824;2023-04-19T14:13:28;13.90;99.90
8214;DHT22;4148;47.974;7.824;2023-04-19T14:15:56;13.90;99.90
8214;DHT22;4148;47.974;7.824;2023-04-19T14:18:24;13.80;99.90
8214;DHT22;4148;47.974;7.824;2023-04-19T14:20:51;13.80;99.90
8214;DHT22;4148;47.974;7.824;2023-04-19T14:23:19;13.80;99.90
8214;DHT22;4148;47.974;7.824;2023-04-19T14:25:47;13.80;99.90
8214;DHT22;4148;47.974;7.824;2023-04-19T14:28:15;13.70;99.90
8214;DHT22;4148;47.974;7.824;2023-04-19T14:30:44;13.60;99.90
8214;DHT22;4148;47.974;7.824;2023-04-19T14:33:12;13.60;99.90
8214;DHT22;4148;47.974;7.824;2023-04-19T14:35:40;13.50;99.90
8214;DHT22;4148;47.974;7.824;2023-04-19T14:38:08;13.50;99.90
8214;DHT22;4148;47.974;7.824;2023-04-19T14:40:36;13.50;99.90
8214;DHT22;4148;47.974;7.824;2023-04-19T14:43:04;13.40;99.90
8214;DHT22;4148;47.974;7.824;2023-04-19T14:45:32;13.40;99.90
8214;DHT22;4148;47.974;7.824;2023-04-19T14:48:01;13.40;99.90
8214;DHT22;4148;47.974;7.824;2023-04-19T14:50:29;13.40;99.90
8214;DHT22;4148;47.974;7.824;2023-04-19T14:52:57;13.40;99.90
8214;DHT22;4148;47.974;7.824;2023-04-19T14:55:25;13.40;99.90
8214;DHT22;4148;47.974;7.824;2023-04-19T14:57:53;13.40;99.90
8214;DHT22;4148;47.974;7.824;2023-04-19T15:00:21;13.50;99.90
8214;DHT22;4148;47.974;7.824;2023-04-19T15:02:49;13.50;99.90
8214;DHT22;4148;47.974;7.824;2023-04-19T15:05:20;13.50;99.90
8214;DHT22;4148;47.974;7.824;2023-04-19T15:07:48;13.60;99.90
8214;DHT22;4148;47.974;7.824;2023-04-19T15:10:16;13.60;99.90
8214;DHT22;4148;47.974;7.824;2023-04-19T15:12:44;13.70;99.90
8214;DHT22;4148;47.974;7.824;2023-04-19T15:15:12;13.70;99.90
8214;DHT22;4148;47.974;7.824;2023-04-19T15:17:40;13.70;99.90
8214;DHT22;4148;47.974;7.824;2023-04-19T15:20:08;13.70;99.90
8214;DHT22;4148;47.974;7.824;2023-04-19T15:22:37;13.80;99.90
8214;DHT22;4148;47.974;7.824;2023-04-19T15:25:06;13.90;99.90
8214;DHT22;4148;47.974;7.824;2023-04-19T15:27:33;13.90;99.90
8214;DHT22;4148;47.974;7.824;2023-04-19T15:30:02;13.90;99.90
8214;DHT22;4148;47.974;7.824;2023-04-19T15:32:30;13.90;99.90
8214;DHT22;4148;47.974;7.824;2023-04-19T15:35:02;13.80;99.90
8214;DHT22;4148;47.974;7.824;2023-04-19T15:37:30;13.90;99.90
8214;DHT22;4148;47.974;7.824;2023-04-19T15:39:59;13.90;99.90
8214;DHT22;4148;47.974;7.824;2023-04-19T15:42:27;13.90;99.90
8214;DHT22;4148;47.974;7.824;2023-04-19T15:44:55;14.00;99.90
8214;DHT22;4148;47.974;7.824;2023-04-19T15:47:23;14.10;99.90
8214;DHT22;4148;47.974;7.824;2023-04-19T15:49:51;14.10;99.90
8214;DHT22;4148;47.974;7.824;2023-04-19T15:52:19;14.20;99.90
8214;DHT22;4148;47.974;7.824;2023-04-19T15:54:47;14.10;99.90
8214;DHT22;4148;47.974;7.824;2023-04-19T15:57:17;14.10;99.90
8214;DHT22;4148;47.974;7.824;2023-04-19T15:59:45;14.00;99.90
8214;DHT22;4148;47.974;7.824;2023-04-19T16:02:13;14.00;99.90
8214;DHT22;4148;47.974;7.824;2023-04-19T16:04:41;14.00;99.90
8214;DHT22;4148;47.974;7.824;2023-04-19T16:07:12;13.90;99.90
8214;DHT22;4148;47.974;7.824;2023-04-19T16:09:40;13.80;99.90
8214;DHT22;4148;47.974;7.824;2023-04-19T16:12:08;13.80;99.90
8214;DHT22;4148;47.974;7.824;2023-04-19T16:14:37;13.70;99.90
8214;DHT22;4148;47.974;7.824;2023-04-19T16:17:05;13.60;99.90
8214;DHT22;4148;47.974;7.824;2023-04-19T16:19:33;13.60;99.90
8214;DHT22;4148;47.974;7.824;2023-04-19T16:22:01;13.60;99.90
8214;DHT22;4148;47.974;7.824;2023-04-19T16:24:31;13.50;99.90
8214;DHT22;4148;47.974;7.824;2023-04-19T16:26:58;13.40;99.90
8214;DHT22;4148;47.974;7.824;2023-04-19T16:29:26;13.30;99.90